sensor_id;sensor_type;location;lat;lon;timestamp;P1;durP1;ratioP1;P2;durP2;ratioP2
30215;SDS011;17028;47.642;8.070;2022-08-19T00:02:22;7.70;;;5.38;;
30215;SDS011;17028;47.642;8.070;2022-08-19T00:07:23;6.13;;;5.53;;
30215;SDS011;17028;47.642;8.070;2022-08-19T00:12:24;6.28;;;5.68;;
30215;SDS011;17028;47.642;8.070;2022-08-19T00:17:25;6.75;;;5.68;;
30215;SDS011;17028;47.642;8.070;2022-08-19T00:22:26;5.88;;;5.00;;
30215;SDS011;17028;47.642;8.070;2022-08-19T00:27:28;6.25;;;5.60;;
30215;SDS011;17028;47.642;8.070;2022-08-19T00:32:29;5.65;;;5.03;;
30215;SDS011;17028;47.642;8.070;2022-08-19T00:37:30;8.77;;;6.10;;
30215;SDS011;17028;47.642;8.070;2022-08-19T00:42:33;6.90;;;6.20;;
30215;SDS011;17028;47.642;8.070;2022-08-19T00:47:34;6.20;;;5.50;;
30215;SDS011;17028;47.642;8.070;2022-08-19T00:52:36;6.50;;;5.68;;
30215;SDS011;17028;47.642;8.070;2022-08-19T00:57:47;5.80;;;5.15;;
30215;SDS011;17028;47.642;8.070;2022-08-19T01:02:52;5.90;;;5.30;;
30215;SDS011;17028;47.642;8.070;2022-08-19T01:07:54;5.70;;;4.72;;
30215;SDS011;17028;47.642;8.070;2022-08-19T01:12:58;5.90;;;5.13;;
30215;SDS011;17028;47.642;8.070;2022-08-19T01:18:01;7.03;;;5.88;;
30215;SDS011;17028;47.642;8.070;2022-08-19T01:23:06;6.57;;;5.88;;
30215;SDS011;17028;47.642;8.070;2022-08-19T01:28:07;7.00;;;6.30;;
30215;SDS011;17028;47.642;8.070;2022-08-19T01:33:08;5.70;;;5.10;;
30215;SDS011;17028;47.642;8.070;2022-08-19T01:38:18;6.15;;;5.55;;
30215;SDS011;17028;47.642;8.070;2022-08-19T01:43:21;6.20;;;5.50;;
30215;SDS011;17028;47.642;8.070;2022-08-19T01:48:22;8.02;;;6.85;;
30215;SDS011;17028;47.642;8.070;2022-08-19T01:53:24;6.93;;;6.22;;
30215;SDS011;17028;47.642;8.070;2022-08-19T01:58:27;6.75;;;6.05;;
30215;SDS011;17028;47.642;8.070;2022-08-19T02:03:33;6.25;;;5.65;;
30215;SDS011;17028;47.642;8.070;2022-08-19T02:08:36;6.40;;;5.18;;
30215;SDS011;17028;47.642;8.070;2022-08-19T02:13:38;6.30;;;5.47;;
30215;SDS011;17028;47.642;8.070;2022-08-19T02:18:39;6.55;;;5.78;;
30215;SDS011;17028;47.642;8.070;2022-08-19T02:23:40;8.18;;;7.38;;
30215;SDS011;17028;47.642;8.070;2022-08-19T02:28:41;8.13;;;6.80;;
30215;SDS011;17028;47.642;8.070;2022-08-19T02:33:43;8.70;;;7.53;;
30215;SDS011;17028;47.642;8.070;2022-08-19T02:38:45;8.75;;;7.85;;
30215;SDS011;17028;47.642;8.070;2022-08-19T02:43:46;9.35;;;8.20;;
30215;SDS011;17028;47.642;8.070;2022-08-19T02:48:48;7.45;;;6.65;;
30215;SDS011;17028;47.642;8.070;2022-08-19T02:53:50;7.00;;;6.30;;
30215;SDS011;17028;47.642;8.070;2022-08-19T02:58:51;7.97;;;7.18;;
30215;SDS011;17028;47.642;8.070;2022-08-19T03:03:52;11.15;;;8.57;;
30215;SDS011;17028;47.642;8.070;2022-08-19T03:08:54;10.63;;;9.13;;
30215;SDS011;17028;47.642;8.070;2022-08-19T03:13:56;12.90;;;10.27;;
30215;SDS011;17028;47.642;8.070;2022-08-19T03:18:57;10.95;;;9.75;;
30215;SDS011;17028;47.642;8.070;2022-08-19T03:24:04;11.53;;;10.37;;
30215;SDS011;17028;47.642;8.070;2022-08-19T03:29:07;10.48;;;9.38;;
30215;SDS011;17028;47.642;8.070;2022-08-19T03:34:10;11.85;;;9.80;;
30215;SDS011;17028;47.642;8.070;2022-08-19T03:39:13;10.93;;;9.77;;
30215;SDS011;17028;47.642;8.070;2022-08-19T03:44:16;10.13;;;9.07;;
30215;SDS011;17028;47.642;8.070;2022-08-19T03:49:21;12.90;;;9.68;;
30215;SDS011;17028;47.642;8.070;2022-08-19T03:54:24;10.60;;;8.77;;
30215;SDS011;17028;47.642;8.070;2022-08-19T03:59:27;11.63;;;9.70;;
30215;SDS011;17028;47.642;8.070;2022-08-19T04:04:33;10.93;;;9.43;;
30215;SDS011;17028;47.642;8.070;2022-08-19T04:09:34;10.60;;;9.50;;
30215;SDS011;17028;47.642;8.070;2022-08-19T04:14:37;12.43;;;9.85;;
30215;SDS011;17028;47.642;8.070;2022-08-19T04:19:38;10.30;;;9.02;;
30215;SDS011;17028;47.642;8.070;2022-08-19T04:24:39;13.48;;;11.77;;
30215;SDS011;17028;47.642;8.070;2022-08-19T04:29:40;13.90;;;11.82;;
30215;SDS011;17028;47.642;8.070;2022-08-19T04:34:41;13.98;;;11.32;;
30215;SDS011;17028;47.642;8.070;2022-08-19T04:39:43;13.80;;;12.25;;
30215;SDS011;17028;47.642;8.070;2022-08-19T04:45:03;14.13;;;11.57;;
30215;SDS011;17028;47.642;8.070;2022-08-19T04:50:06;12.43;;;9.73;;
30215;SDS011;17028;47.642;8.070;2022-08-19T04:55:11;10.60;;;9.50;;
30215;SDS011;17028;47.642;8.070;2022-08-19T05:00:13;9.57;;;8.57;;
30215;SDS011;17028;47.642;8.070;2022-08-19T05:05:14;9.70;;;8.05;;
30215;SDS011;17028;47.642;8.070;2022-08-19T05:10:15;8.02;;;7.22;;
30215;SDS011;17028;47.642;8.070;2022-08-19T05:15:16;8.10;;;7.25;;
30215;SDS011;17028;47.642;8.070;2022-08-19T05:20:17;8.65;;;7.75;;
30215;SDS011;17028;47.642;8.070;2022-08-19T05:25:38;9.35;;;8.35;;
30215;SDS011;17028;47.642;8.070;2022-08-19T05:30:40;9.10;;;7.97;;
30215;SDS011;17028;47.642;8.070;2022-08-19T05:35:41;14.85;;;12.63;;
30215;SDS011;17028;47.642;8.070;2022-08-19T05:40:42;12.68;;;11.35;;
30215;SDS011;17028;47.642;8.070;2022-08-19T05:45:47;13.77;;;12.23;;
30215;SDS011;17028;47.642;8.070;2022-08-19T05:50:48;14.25;;;12.15;;
30215;SDS011;17028;47.642;8.070;2022-08-19T05:55:50;13.00;;;11.60;;
30215;SDS011;17028;47.642;8.070;2022-08-19T06:00:51;12.68;;;11.38;;
30215;SDS011;17028;47.642;8.070;2022-08-19T06:05:54;12.98;;;10.90;;
30215;SDS011;17028;47.642;8.070;2022-08-19T06:10:56;9.98;;;8.98;;
30215;SDS011;17028;47.642;8.070;2022-08-19T06:15:57;9.63;;;8.63;;
30215;SDS011;17028;47.642;8.070;2022-08-19T06:20:58;11.18;;;9.80;;
30215;SDS011;17028;47.642;8.070;2022-08-19T06:25:59;11.98;;;10.65;;
30215;SDS011;17028;47.642;8.070;2022-08-19T06:31:05;11.30;;;10.15;;
30215;SDS011;17028;47.642;8.070;2022-08-19T06:36:06;11.02;;;9.82;;
30215;SDS011;17028;47.642;8.070;2022-08-19T06:41:08;11.50;;;10.20;;
30215;SDS011;17028;47.642;8.070;2022-08-19T06:46:14;12.23;;;10.90;;
30215;SDS011;17028;47.642;8.070;2022-08-19T06:51:17;12.57;;;11.27;;
30215;SDS011;17028;47.642;8.070;2022-08-19T06:56:21;12.18;;;10.85;;
30215;SDS011;17028;47.642;8.070;2022-08-19T07:01:25;11.70;;;10.50;;
30215;SDS011;17028;47.642;8.070;2022-08-19T07:06:27;11.50;;;10.30;;
30215;SDS011;17028;47.642;8.070;2022-08-19T07:11:28;11.63;;;10.43;;
30215;SDS011;17028;47.642;8.070;2022-08-19T07:16:29;12.40;;;11.10;;
30215;SDS011;17028;47.642;8.070;2022-08-19T07:21:30;12.90;;;11.55;;
30215;SDS011;17028;47.642;8.070;2022-08-19T07:26:32;13.27;;;11.88;;
30215;SDS011;17028;47.642;8.070;2022-08-19T07:31:39;14.73;;;13.23;;
30215;SDS011;17028;47.642;8.070;2022-08-19T07:36:41;15.05;;;13.38;;
30215;SDS011;17028;47.642;8.070;2022-08-19T07:41:43;18.38;;;15.55;;
30215;SDS011;17028;47.642;8.070;2022-08-19T07:46:45;17.52;;;15.73;;
30215;SDS011;17028;47.642;8.070;2022-08-19T07:51:51;18.70;;;16.73;;
30215;SDS011;17028;47.642;8.070;2022-08-19T07:56:54;20.27;;;17.77;;
30215;SDS011;17028;47.642;8.070;2022-08-19T08:01:56;21.75;;;17.60;;
30215;SDS011;17028;47.642;8.070;2022-08-19T08:06:57;21.25;;;18.52;;
30215;SDS011;17028;47.642;8.070;2022-08-19T08:12:19;22.52;;;18.50;;
30215;SDS011;17028;47.642;8.070;2022-08-19T08:17:26;20.10;;;17.90;;
30215;SDS011;17028;47.642;8.070;2022-08-19T08:22:28;20.88;;;18.65;;
30215;SDS011;17028;47.642;8.070;2022-08-19T08:27:47;22.42;;;19.90;;
30215;SDS011;17028;47.642;8.070;2022-08-19T08:32:50;27.65;;;22.33;;
30215;SDS011;17028;47.642;8.070;2022-08-19T08:37:52;23.65;;;20.45;;
30215;SDS011;17028;47.642;8.070;2022-08-19T08:43:03;25.92;;;21.27;;
30215;SDS011;17028;47.642;8.070;2022-08-19T08:48:16;23.37;;;19.83;;
30215;SDS011;17028;47.642;8.070;2022-08-19T08:53:23;23.38;;;19.98;;
30215;SDS011;17028;47.642;8.070;2022-08-19T08:58:27;23.27;;;20.77;;
30215;SDS011;17028;47.642;8.070;2022-08-19T09:03:33;23.90;;;20.45;;
30215;SDS011;17028;47.642;8.070;2022-08-19T09:19:19;22.80;;;20.40;;
30215;SDS011;17028;47.642;8.070;2022-08-19T09:24:20;22.83;;;19.85;;
30215;SDS011;17028;47.642;8.070;2022-08-19T09:29:21;23.63;;;20.55;;
30215;SDS011;17028;47.642;8.070;2022-08-19T09:34:22;20.20;;;17.67;;
30215;SDS011;17028;47.642;8.070;2022-08-19T09:39:23;18.10;;;16.20;;
30215;SDS011;17028;47.642;8.070;2022-08-19T09:44:24;19.95;;;17.50;;
30215;SDS011;17028;47.642;8.070;2022-08-19T09:49:25;20.27;;;18.13;;
30215;SDS011;17028;47.642;8.070;2022-08-19T09:54:26;20.85;;;17.75;;
30215;SDS011;17028;47.642;8.070;2022-08-19T09:59:27;23.30;;;20.80;;
30215;SDS011;17028;47.642;8.070;2022-08-19T10:04:29;18.23;;;16.33;;
30215;SDS011;17028;47.642;8.070;2022-08-19T10:09:48;19.38;;;17.38;;
30215;SDS011;17028;47.642;8.070;2022-08-19T10:14:49;21.33;;;19.02;;
30215;SDS011;17028;47.642;8.070;2022-08-19T10:19:53;22.48;;;19.48;;
30215;SDS011;17028;47.642;8.070;2022-08-19T10:24:54;20.70;;;18.60;;
30215;SDS011;17028;47.642;8.070;2022-08-19T10:29:56;20.92;;;18.33;;
30215;SDS011;17028;47.642;8.070;2022-08-19T10:34:58;21.98;;;19.48;;
30215;SDS011;17028;47.642;8.070;2022-08-19T10:39:59;19.98;;;17.67;;
30215;SDS011;17028;47.642;8.070;2022-08-19T10:45:00;19.17;;;16.45;;
30215;SDS011;17028;47.642;8.070;2022-08-19T10:50:02;17.95;;;16.15;;
30215;SDS011;17028;47.642;8.070;2022-08-19T10:55:22;19.73;;;17.42;;
30215;SDS011;17028;47.642;8.070;2022-08-19T11:00:50;18.83;;;16.98;;
30215;SDS011;17028;47.642;8.070;2022-08-19T11:06:00;19.55;;;17.55;;
30215;SDS011;17028;47.642;8.070;2022-08-19T11:11:04;20.52;;;18.42;;
30215;SDS011;17028;47.642;8.070;2022-08-19T11:16:08;22.25;;;19.98;;
30215;SDS011;17028;47.642;8.070;2022-08-19T11:21:13;21.10;;;18.98;;
30215;SDS011;17028;47.642;8.070;2022-08-19T11:26:18;21.45;;;19.25;;
30215;SDS011;17028;47.642;8.070;2022-08-19T11:31:22;22.42;;;20.25;;
30215;SDS011;17028;47.642;8.070;2022-08-19T11:36:25;22.42;;;20.10;;
30215;SDS011;17028;47.642;8.070;2022-08-19T11:41:27;20.45;;;18.35;;
30215;SDS011;17028;47.642;8.070;2022-08-19T11:46:28;19.08;;;17.17;;
30215;SDS011;17028;47.642;8.070;2022-08-19T11:51:30;26.90;;;24.02;;
30215;SDS011;17028;47.642;8.070;2022-08-19T11:56:32;23.58;;;21.17;;
30215;SDS011;17028;47.642;8.070;2022-08-19T12:01:33;24.55;;;22.13;;
30215;SDS011;17028;47.642;8.070;2022-08-19T12:06:37;23.45;;;21.15;;
30215;SDS011;17028;47.642;8.070;2022-08-19T12:11:39;21.55;;;19.45;;
30215;SDS011;17028;47.642;8.070;2022-08-19T12:16:41;21.35;;;19.25;;
30215;SDS011;17028;47.642;8.070;2022-08-19T12:21:46;22.90;;;20.60;;
30215;SDS011;17028;47.642;8.070;2022-08-19T12:26:47;19.75;;;17.85;;
30215;SDS011;17028;47.642;8.070;2022-08-19T12:31:48;22.75;;;20.45;;
30215;SDS011;17028;47.642;8.070;2022-08-19T12:36:49;21.52;;;19.42;;
30215;SDS011;17028;47.642;8.070;2022-08-19T12:41:50;22.35;;;20.05;;
30215;SDS011;17028;47.642;8.070;2022-08-19T12:46:52;21.38;;;19.38;;
30215;SDS011;17028;47.642;8.070;2022-08-19T12:51:53;22.02;;;19.83;;
30215;SDS011;17028;47.642;8.070;2022-08-19T12:56:54;21.08;;;19.00;;
30215;SDS011;17028;47.642;8.070;2022-08-19T13:01:56;23.20;;;20.83;;
30215;SDS011;17028;47.642;8.070;2022-08-19T13:06:58;23.63;;;21.33;;
30215;SDS011;17028;47.642;8.070;2022-08-19T13:11:59;25.02;;;22.52;;
30215;SDS011;17028;47.642;8.070;2022-08-19T13:17:03;23.58;;;21.17;;
30215;SDS011;17028;47.642;8.070;2022-08-19T13:22:04;23.25;;;20.92;;
30215;SDS011;17028;47.642;8.070;2022-08-19T13:27:05;24.48;;;21.38;;
30215;SDS011;17028;47.642;8.070;2022-08-19T13:32:07;22.58;;;20.30;;
30215;SDS011;17028;47.642;8.070;2022-08-19T13:37:26;20.83;;;18.73;;
30215;SDS011;17028;47.642;8.070;2022-08-19T13:42:43;19.75;;;17.75;;
30215;SDS011;17028;47.642;8.070;2022-08-19T13:47:47;19.10;;;17.25;;
30215;SDS011;17028;47.642;8.070;2022-08-19T13:52:48;21.25;;;18.98;;
30215;SDS011;17028;47.642;8.070;2022-08-19T13:57:50;19.83;;;17.80;;
30215;SDS011;17028;47.642;8.070;2022-08-19T14:02:55;17.75;;;16.05;;
30215;SDS011;17028;47.642;8.070;2022-08-19T14:07:58;15.70;;;14.23;;
30215;SDS011;17028;47.642;8.070;2022-08-19T14:13:01;15.38;;;13.65;;
30215;SDS011;17028;47.642;8.070;2022-08-19T14:18:03;14.95;;;13.45;;
30215;SDS011;17028;47.642;8.070;2022-08-19T14:23:05;13.75;;;12.45;;
30215;SDS011;17028;47.642;8.070;2022-08-19T14:28:06;12.82;;;11.63;;
30215;SDS011;17028;47.642;8.070;2022-08-19T14:33:07;11.68;;;10.57;;
30215;SDS011;17028;47.642;8.070;2022-08-19T14:38:14;11.35;;;10.32;;
30215;SDS011;17028;47.642;8.070;2022-08-19T14:43:16;12.43;;;11.23;;
30215;SDS011;17028;47.642;8.070;2022-08-19T14:48:18;12.98;;;11.68;;
30215;SDS011;17028;47.642;8.070;2022-08-19T14:53:22;15.18;;;13.68;;
30215;SDS011;17028;47.642;8.070;2022-08-19T14:58:23;14.57;;;12.52;;
30215;SDS011;17028;47.642;8.070;2022-08-19T15:03:24;17.20;;;14.07;;
30215;SDS011;17028;47.642;8.070;2022-08-19T15:08:26;15.85;;;14.27;;
30215;SDS011;17028;47.642;8.070;2022-08-19T15:13:28;15.77;;;14.18;;
30215;SDS011;17028;47.642;8.070;2022-08-19T15:18:30;16.92;;;15.13;;
30215;SDS011;17028;47.642;8.070;2022-08-19T15:23:31;17.05;;;15.27;;
30215;SDS011;17028;47.642;8.070;2022-08-19T15:28:32;16.40;;;14.70;;
30215;SDS011;17028;47.642;8.070;2022-08-19T15:33:34;15.95;;;14.35;;
30215;SDS011;17028;47.642;8.070;2022-08-19T15:38:41;17.40;;;15.70;;
30215;SDS011;17028;47.642;8.070;2022-08-19T15:43:42;13.90;;;12.60;;
30215;SDS011;17028;47.642;8.070;2022-08-19T15:48:44;14.65;;;13.05;;
30215;SDS011;17028;47.642;8.070;2022-08-19T15:53:45;15.50;;;14.00;;
30215;SDS011;17028;47.642;8.070;2022-08-19T15:58:47;15.63;;;14.00;;
30215;SDS011;17028;47.642;8.070;2022-08-19T16:04:06;18.25;;;16.48;;
30215;SDS011;17028;47.642;8.070;2022-08-19T16:09:26;16.40;;;14.77;;
30215;SDS011;17028;47.642;8.070;2022-08-19T16:14:31;16.38;;;14.68;;
30215;SDS011;17028;47.642;8.070;2022-08-19T16:19:33;16.40;;;14.80;;
30215;SDS011;17028;47.642;8.070;2022-08-19T16:24:34;18.02;;;16.20;;
30215;SDS011;17028;47.642;8.070;2022-08-19T16:29:36;18.40;;;16.48;;
30215;SDS011;17028;47.642;8.070;2022-08-19T16:34:37;17.45;;;15.75;;
30215;SDS011;17028;47.642;8.070;2022-08-19T16:39:40;17.98;;;16.17;;
30215;SDS011;17028;47.642;8.070;2022-08-19T16:44:42;16.48;;;14.88;;
30215;SDS011;17028;47.642;8.070;2022-08-19T16:49:45;18.30;;;16.48;;
30215;SDS011;17028;47.642;8.070;2022-08-19T16:54:46;20.55;;;18.15;;
30215;SDS011;17028;47.642;8.070;2022-08-19T16:59:47;20.17;;;18.08;;
30215;SDS011;17028;47.642;8.070;2022-08-19T17:04:50;18.38;;;16.48;;
30215;SDS011;17028;47.642;8.070;2022-08-19T17:09:52;17.85;;;16.05;;
30215;SDS011;17028;47.642;8.070;2022-08-19T17:14:53;19.73;;;17.63;;
30215;SDS011;17028;47.642;8.070;2022-08-19T17:19:59;18.00;;;16.20;;
30215;SDS011;17028;47.642;8.070;2022-08-19T17:25:02;18.50;;;16.60;;
30215;SDS011;17028;47.642;8.070;2022-08-19T17:30:03;19.80;;;17.80;;
30215;SDS011;17028;47.642;8.070;2022-08-19T17:35:06;19.08;;;17.20;;
30215;SDS011;17028;47.642;8.070;2022-08-19T17:40:07;18.75;;;16.95;;
30215;SDS011;17028;47.642;8.070;2022-08-19T17:45:09;17.40;;;15.75;;
30215;SDS011;17028;47.642;8.070;2022-08-19T17:50:11;19.90;;;17.95;;
30215;SDS011;17028;47.642;8.070;2022-08-19T17:55:12;20.30;;;18.23;;
30215;SDS011;17028;47.642;8.070;2022-08-19T18:00:14;18.83;;;17.02;;
30215;SDS011;17028;47.642;8.070;2022-08-19T18:05:16;20.00;;;18.00;;
30215;SDS011;17028;47.642;8.070;2022-08-19T18:10:19;18.98;;;17.08;;
30215;SDS011;17028;47.642;8.070;2022-08-19T18:15:22;16.13;;;14.63;;
30215;SDS011;17028;47.642;8.070;2022-08-19T18:20:23;16.00;;;14.40;;
30215;SDS011;17028;47.642;8.070;2022-08-19T18:25:25;15.02;;;13.52;;
30215;SDS011;17028;47.642;8.070;2022-08-19T18:30:28;15.38;;;13.88;;
30215;SDS011;17028;47.642;8.070;2022-08-19T18:35:34;13.00;;;11.80;;
30215;SDS011;17028;47.642;8.070;2022-08-19T18:40:38;13.60;;;12.30;;
30215;SDS011;17028;47.642;8.070;2022-08-19T18:45:57;13.38;;;11.80;;
30215;SDS011;17028;47.642;8.070;2022-08-19T18:51:16;14.52;;;13.10;;
30215;SDS011;17028;47.642;8.070;2022-08-19T18:56:18;13.95;;;12.65;;
30215;SDS011;17028;47.642;8.070;2022-08-19T19:01:21;13.65;;;12.35;;
30215;SDS011;17028;47.642;8.070;2022-08-19T19:06:29;12.98;;;11.70;;
30215;SDS011;17028;47.642;8.070;2022-08-19T19:11:36;13.02;;;11.73;;
30215;SDS011;17028;47.642;8.070;2022-08-19T19:16:43;11.80;;;10.70;;
30215;SDS011;17028;47.642;8.070;2022-08-19T19:21:46;10.63;;;9.60;;
30215;SDS011;17028;47.642;8.070;2022-08-19T19:26:49;12.00;;;10.80;;
30215;SDS011;17028;47.642;8.070;2022-08-19T19:31:52;12.55;;;11.25;;
30215;SDS011;17028;47.642;8.070;2022-08-19T19:36:55;11.82;;;10.63;;
30215;SDS011;17028;47.642;8.070;2022-08-19T19:41:56;10.50;;;9.50;;
30215;SDS011;17028;47.642;8.070;2022-08-19T19:46:57;10.63;;;9.63;;
30215;SDS011;17028;47.642;8.070;2022-08-19T19:51:59;9.95;;;8.95;;
30215;SDS011;17028;47.642;8.070;2022-08-19T19:57:00;9.30;;;8.40;;
30215;SDS011;17028;47.642;8.070;2022-08-19T20:02:01;9.45;;;8.55;;
30215;SDS011;17028;47.642;8.070;2022-08-19T20:07:02;9.23;;;8.32;;
30215;SDS011;17028;47.642;8.070;2022-08-19T20:12:03;9.05;;;8.15;;
30215;SDS011;17028;47.642;8.070;2022-08-19T20:17:04;8.13;;;7.32;;
30215;SDS011;17028;47.642;8.070;2022-08-19T20:22:06;6.85;;;6.15;;
30215;SDS011;17028;47.642;8.070;2022-08-19T20:27:08;6.18;;;5.57;;
30215;SDS011;17028;47.642;8.070;2022-08-19T20:32:09;5.72;;;5.13;;
30215;SDS011;17028;47.642;8.070;2022-08-19T20:37:10;5.05;;;4.55;;
30215;SDS011;17028;47.642;8.070;2022-08-19T20:42:11;5.13;;;4.63;;
30215;SDS011;17028;47.642;8.070;2022-08-19T20:47:12;4.68;;;4.18;;
30215;SDS011;17028;47.642;8.070;2022-08-19T20:52:13;5.30;;;4.80;;
30215;SDS011;17028;47.642;8.070;2022-08-19T20:57:15;5.45;;;4.85;;
30215;SDS011;17028;47.642;8.070;2022-08-19T21:02:16;6.35;;;5.75;;
30215;SDS011;17028;47.642;8.070;2022-08-19T21:07:18;7.68;;;6.88;;
30215;SDS011;17028;47.642;8.070;2022-08-19T21:12:19;7.22;;;6.53;;
30215;SDS011;17028;47.642;8.070;2022-08-19T21:17:20;9.15;;;8.25;;
30215;SDS011;17028;47.642;8.070;2022-08-19T21:22:21;11.43;;;9.38;;
30215;SDS011;17028;47.642;8.070;2022-08-19T21:27:22;12.48;;;10.90;;
30215;SDS011;17028;47.642;8.070;2022-08-19T21:32:23;11.32;;;10.23;;
30215;SDS011;17028;47.642;8.070;2022-08-19T21:37:24;11.50;;;10.30;;
30215;SDS011;17028;47.642;8.070;2022-08-19T21:42:25;11.90;;;10.70;;
30215;SDS011;17028;47.642;8.070;2022-08-19T21:47:26;11.77;;;10.13;;
30215;SDS011;17028;47.642;8.070;2022-08-19T21:52:27;12.85;;;11.48;;
30215;SDS011;17028;47.642;8.070;2022-08-19T21:57:28;14.27;;;11.52;;
30215;SDS011;17028;47.642;8.070;2022-08-19T22:02:29;13.27;;;11.88;;
30215;SDS011;17028;47.642;8.070;2022-08-19T22:07:30;12.65;;;11.30;;
30215;SDS011;17028;47.642;8.070;2022-08-19T22:12:33;12.27;;;11.07;;
30215;SDS011;17028;47.642;8.070;2022-08-19T22:17:37;11.88;;;10.43;;
30215;SDS011;17028;47.642;8.070;2022-08-19T22:22:41;11.75;;;10.52;;
30215;SDS011;17028;47.642;8.070;2022-08-19T22:27:49;11.95;;;10.48;;
30215;SDS011;17028;47.642;8.070;2022-08-19T22:32:52;10.43;;;9.32;;
30215;SDS011;17028;47.642;8.070;2022-08-19T22:38:00;10.18;;;8.90;;
30215;SDS011;17028;47.642;8.070;2022-08-19T22:43:03;11.88;;;10.57;;
30215;SDS011;17028;47.642;8.070;2022-08-19T22:48:10;13.18;;;11.85;;
30215;SDS011;17028;47.642;8.070;2022-08-19T22:53:13;11.88;;;10.68;;
30215;SDS011;17028;47.642;8.070;2022-08-19T22:58:14;11.80;;;10.57;;
30215;SDS011;17028;47.642;8.070;2022-08-19T23:03:15;12.98;;;11.60;;
30215;SDS011;17028;47.642;8.070;2022-08-19T23:08:16;12.02;;;10.82;;
30215;SDS011;17028;47.642;8.070;2022-08-19T23:13:17;11.18;;;10.07;;
30215;SDS011;17028;47.642;8.070;2022-08-19T23:18:19;9.43;;;8.52;;
30215;SDS011;17028;47.642;8.070;2022-08-19T23:23:20;8.32;;;7.53;;
30215;SDS011;17028;47.642;8.070;2022-08-19T23:28:24;6.90;;;6.20;;
30215;SDS011;17028;47.642;8.070;2022-08-19T23:33:43;8.20;;;7.40;;
30215;SDS011;17028;47.642;8.070;2022-08-19T23:38:45;7.78;;;7.00;;
30215;SDS011;17028;47.642;8.070;2022-08-19T23:43:48;6.90;;;6.20;;
30215;SDS011;17028;47.642;8.070;2022-08-19T23:48:49;7.00;;;6.30;;
30215;SDS011;17028;47.642;8.070;2022-08-19T23:53:50;7.25;;;6.55;;
30215;SDS011;17028;47.642;8.070;2022-08-19T23:58:51;7.53;;;6.55;;
